createdAt,value
2022-10-18T00:00:25.673Z,85.30
2022-10-18T00:03:14.369Z,85.24
2022-10-18T00:05:43.273Z,85.19
2022-10-18T00:08:11.755Z,85.13
2022-10-18T00:10:40.220Z,85.11
2022-10-18T00:13:08.688Z,85.21
2022-10-18T00:15:37.397Z,85.05
2022-10-18T00:18:06.112Z,85.32
2022-10-18T00:20:34.729Z,85.18
2022-10-18T00:23:03.184Z,85.00
2022-10-18T00:25:31.570Z,84.74
2022-10-18T00:28:01.379Z,84.43
2022-10-18T00:30:29.761Z,84.37
2022-10-18T00:32:58.181Z,84.30
2022-10-18T00:35:30.547Z,84.23
2022-10-18T00:38:00.756Z,83.96
2022-10-18T00:40:29.996Z,83.78
2022-10-18T00:42:59.551Z,83.51
2022-10-18T00:45:28.207Z,83.27
2022-10-18T00:48:00.306Z,83.14
2022-10-18T00:50:33.337Z,82.75
2022-10-18T00:53:04.977Z,82.59
2022-10-18T00:55:34.594Z,82.21
2022-10-18T00:58:04.522Z,81.86
2022-10-18T01:00:34.388Z,81.46
2022-10-18T01:03:03.377Z,81.24
2022-10-18T01:05:32.197Z,81.00
2022-10-18T01:08:18.756Z,80.62
2022-10-18T01:10:54.505Z,80.60
2022-10-18T01:13:35.604Z,80.37
2022-10-18T01:16:12.069Z,80.22
2022-10-18T01:18:48.844Z,80.16
2022-10-18T01:21:32.544Z,80.07
2022-10-18T01:24:44.489Z,79.72
2022-10-18T01:27:38.365Z,79.62
2022-10-18T01:30:47.544Z,79.47
2022-10-18T01:33:26.572Z,79.41
2022-10-18T01:36:00.968Z,79.30
2022-10-18T01:38:32.225Z,79.21
2022-10-18T01:41:04.294Z,79.11
2022-10-18T01:43:35.166Z,78.85
2022-10-18T01:46:05.628Z,78.89
2022-10-18T01:48:37.743Z,78.77
2022-10-18T01:51:07.296Z,78.74
2022-10-18T01:53:36.105Z,78.76
2022-10-18T01:56:32.455Z,78.71
2022-10-18T01:59:22.920Z,78.78
2022-10-18T02:02:00.924Z,78.78
2022-10-18T02:04:41.185Z,78.71
2022-10-18T02:07:23.497Z,78.80
2022-10-18T02:10:02.069Z,78.79
2022-10-18T02:12:33.758Z,78.69
2022-10-18T02:15:04.972Z,78.83
2022-10-18T02:17:33.738Z,78.84
2022-10-18T02:20:05.482Z,78.71
2022-10-18T02:22:35.372Z,78.73
2022-10-18T02:25:09.995Z,78.79
2022-10-18T02:27:39.655Z,78.83
2022-10-18T02:30:12.007Z,78.74
2022-10-18T02:32:44.593Z,78.79
2022-10-18T02:35:20.670Z,78.83
2022-10-18T02:37:51.866Z,78.86
2022-10-18T02:40:23.207Z,78.81
2022-10-18T02:42:55.512Z,78.80
2022-10-18T02:45:24.676Z,78.76
2022-10-18T02:47:53.326Z,78.66
2022-10-18T02:50:22.292Z,78.67
2022-10-18T02:52:50.789Z,78.70
2022-10-18T02:55:19.929Z,78.62
2022-10-18T02:57:48.559Z,78.79
2022-10-18T03:00:17.721Z,78.68
2022-10-18T03:02:46.223Z,78.75
2022-10-18T03:05:14.835Z,78.81
2022-10-18T03:07:44.744Z,78.69
2022-10-18T03:10:13.219Z,78.81
2022-10-18T03:12:41.805Z,78.86
2022-10-18T03:15:11.282Z,78.85
2022-10-18T03:17:39.905Z,78.81
2022-10-18T03:20:10.722Z,78.81
2022-10-18T03:22:39.066Z,78.82
2022-10-18T03:25:08.843Z,78.73
2022-10-18T03:27:37.425Z,78.69
2022-10-18T03:30:08.096Z,78.68
2022-10-18T03:32:36.572Z,78.63
2022-10-18T03:35:06.124Z,78.56
2022-10-18T03:37:34.934Z,78.63
2022-10-18T03:40:04.518Z,78.62
2022-10-18T03:42:33.159Z,78.59
2022-10-18T03:45:02.023Z,78.51
2022-10-18T03:47:33.903Z,78.39
2022-10-18T03:50:02.856Z,78.33
2022-10-18T03:52:31.828Z,78.23
2022-10-18T03:55:03.108Z,78.08
2022-10-18T03:57:31.570Z,77.97
2022-10-18T04:00:03.771Z,77.85
2022-10-18T04:02:40.938Z,77.79
2022-10-18T04:05:10.341Z,77.60
2022-10-18T04:07:41.905Z,77.53
2022-10-18T04:10:10.793Z,77.62
2022-10-18T04:12:39.556Z,77.35
2022-10-18T04:15:10.672Z,77.34
2022-10-18T04:17:39.418Z,77.19
2022-10-18T04:20:09.718Z,77.15
2022-10-18T04:22:38.368Z,77.06
2022-10-18T04:25:07.898Z,76.82
2022-10-18T04:27:36.449Z,76.81
2022-10-18T04:30:06.933Z,76.93
2022-10-18T04:32:35.422Z,76.78
2022-10-18T04:35:04.735Z,76.82
2022-10-18T04:37:33.742Z,76.74
2022-10-18T04:40:08.854Z,76.66
2022-10-18T04:42:37.542Z,76.73
2022-10-18T04:45:08.049Z,76.78
2022-10-18T04:47:36.454Z,76.88
2022-10-18T04:50:06.370Z,76.96
2022-10-18T04:52:34.744Z,77.00
2022-10-18T04:55:03.538Z,77.05
2022-10-18T04:57:32.185Z,76.99
2022-10-18T05:00:02.403Z,77.07
2022-10-18T05:02:31.260Z,77.02
2022-10-18T05:05:02.391Z,77.17
2022-10-18T05:07:31.138Z,77.24
2022-10-18T05:10:02.054Z,77.22
2022-10-18T05:12:30.861Z,77.34
2022-10-18T05:15:02.002Z,77.50
2022-10-18T05:17:30.680Z,77.45
2022-10-18T05:20:02.607Z,77.66
2022-10-18T05:22:31.649Z,77.74
2022-10-18T05:25:05.192Z,77.83
2022-10-18T05:27:34.020Z,77.92
2022-10-18T05:30:05.646Z,77.93
2022-10-18T05:32:35.010Z,77.90
2022-10-18T05:35:03.730Z,77.91
2022-10-18T05:37:32.107Z,77.96
2022-10-18T05:40:01.308Z,77.92
2022-10-18T05:42:30.021Z,77.73
2022-10-18T05:45:00.611Z,77.75
2022-10-18T05:47:29.354Z,77.69
2022-10-18T05:49:57.875Z,77.62
2022-10-18T05:52:27.687Z,77.56
2022-10-18T05:54:56.114Z,77.48
2022-10-18T05:57:24.550Z,77.43
2022-10-18T05:59:53.041Z,77.52
2022-10-18T06:02:21.582Z,77.45
2022-10-18T06:04:52.825Z,77.49
2022-10-18T06:07:21.379Z,77.58
2022-10-18T06:09:49.999Z,77.45
2022-10-18T06:12:18.660Z,77.43
2022-10-18T06:14:48.913Z,77.66
2022-10-18T06:17:17.376Z,77.10
2022-10-18T06:19:49.003Z,76.83
2022-10-18T06:22:17.667Z,76.42
2022-10-18T06:24:46.162Z,76.38
2022-10-18T06:27:15.121Z,76.39
2022-10-18T06:29:43.878Z,76.35
2022-10-18T06:32:12.413Z,76.36
2022-10-18T06:34:44.135Z,75.92
2022-10-18T06:37:16.828Z,75.73
2022-10-18T06:39:45.375Z,75.21
2022-10-18T06:42:14.800Z,75.20
2022-10-18T06:44:45.568Z,74.85
2022-10-18T06:47:14.051Z,74.52
2022-10-18T06:49:45.605Z,74.27
2022-10-18T06:52:16.489Z,74.19
2022-10-18T06:54:45.508Z,74.00
2022-10-18T06:57:14.178Z,73.95
2022-10-18T06:59:45.469Z,73.74
2022-10-18T07:02:17.124Z,73.23
2022-10-18T07:04:46.002Z,72.93
2022-10-18T07:07:17.209Z,72.81
2022-10-18T07:09:45.600Z,73.15
2022-10-18T07:12:17.304Z,72.50
2022-10-18T07:14:46.792Z,72.09
2022-10-18T07:17:15.243Z,71.54
2022-10-18T07:19:47.142Z,71.42
2022-10-18T07:22:15.593Z,71.07
2022-10-18T07:24:44.102Z,70.79
2022-10-18T07:27:12.700Z,70.75
2022-10-18T07:29:43.565Z,70.52
2022-10-18T07:32:12.130Z,70.07
2022-10-18T07:34:46.999Z,70.70
2022-10-18T07:37:15.390Z,70.64
2022-10-18T07:39:43.993Z,69.96
2022-10-18T07:42:12.458Z,69.26
2022-10-18T07:44:40.857Z,68.05
2022-10-18T07:47:09.440Z,67.14
2022-10-18T07:49:37.870Z,67.09
2022-10-18T07:52:06.729Z,67.31
2022-10-18T07:54:35.394Z,66.56
2022-10-18T07:57:05.402Z,66.51
2022-10-18T07:59:33.996Z,66.71
2022-10-18T08:02:02.404Z,66.45
2022-10-18T08:04:33.647Z,66.71
2022-10-18T08:07:02.084Z,66.36
2022-10-18T08:09:30.639Z,66.88
2022-10-18T08:12:00.230Z,66.97
2022-10-18T08:14:29.071Z,66.87
2022-10-18T08:16:57.885Z,66.96
2022-10-18T08:19:28.540Z,66.40
2022-10-18T08:21:57.169Z,67.04
2022-10-18T08:24:25.963Z,66.72
2022-10-18T08:26:54.983Z,65.57
2022-10-18T08:29:29.234Z,66.34
2022-10-18T08:32:01.266Z,66.57
2022-10-18T08:34:30.008Z,66.76
2022-10-18T08:37:00.107Z,66.59
2022-10-18T08:39:28.731Z,66.63
2022-10-18T08:42:21.600Z,66.31
2022-10-18T08:44:52.301Z,65.39
2022-10-18T08:47:23.007Z,65.98
2022-10-18T08:49:54.319Z,64.97
2022-10-18T08:52:34.185Z,65.39
2022-10-18T08:55:09.714Z,64.95
2022-10-18T08:57:38.203Z,63.88
2022-10-18T09:00:15.982Z,62.60
2022-10-18T09:02:58.102Z,58.49
2022-10-18T09:05:39.856Z,54.95
2022-10-18T09:08:33.614Z,51.02
2022-10-18T09:11:15.676Z,50.05
2022-10-18T09:14:05.367Z,47.63
2022-10-18T09:16:45.661Z,46.85
2022-10-18T09:19:27.330Z,47.15
2022-10-18T09:22:03.973Z,45.05
2022-10-18T09:24:42.638Z,45.10
2022-10-18T09:27:16.042Z,43.92
2022-10-18T09:29:54.354Z,47.72
2022-10-18T09:32:30.269Z,41.39
2022-10-18T09:35:05.599Z,39.60
2022-10-18T09:37:35.011Z,39.09
2022-10-18T09:40:18.152Z,39.58
2022-10-18T09:42:55.660Z,40.20
2022-10-18T09:45:29.110Z,40.50
2022-10-18T09:48:02.884Z,40.20
2022-10-18T09:50:36.921Z,38.71
2022-10-18T09:53:18.099Z,38.52
2022-10-18T09:56:00.653Z,37.77
2022-10-18T09:58:43.671Z,37.92
2022-10-18T10:01:15.493Z,36.12
2022-10-18T10:03:45.104Z,36.25
2022-10-18T10:06:25.029Z,35.35
2022-10-18T10:09:07.058Z,35.35
2022-10-18T10:11:39.617Z,37.06
2022-10-18T10:16:51.548Z,37.46
2022-10-18T10:19:26.777Z,37.35
2022-10-18T10:22:00.701Z,39.06
2022-10-18T10:24:49.347Z,39.74
2022-10-18T10:27:21.499Z,41.21
2022-10-18T10:30:06.778Z,43.28
2022-10-18T10:32:47.667Z,43.91
2022-10-18T10:35:53.435Z,46.09
2022-10-18T10:38:27.117Z,46.03
2022-10-18T10:40:56.590Z,46.82
2022-10-18T10:43:43.537Z,47.10
2022-10-18T10:46:15.108Z,46.76
2022-10-18T10:48:49.862Z,47.47
2022-10-18T10:51:30.297Z,48.55
2022-10-18T10:54:05.110Z,50.41
2022-10-18T10:56:36.213Z,50.61
2022-10-18T10:59:14.301Z,49.98
2022-10-18T11:01:43.409Z,50.34
2022-10-18T11:04:27.606Z,50.76
2022-10-18T11:07:06.889Z,51.17
2022-10-18T11:09:49.043Z,52.20
2022-10-18T11:12:33.123Z,52.81
2022-10-18T11:15:18.589Z,52.72
2022-10-18T11:17:55.811Z,52.91
2022-10-18T11:20:30.179Z,53.41
2022-10-18T11:23:06.093Z,53.39
2022-10-18T11:26:10.525Z,53.42
2022-10-18T11:28:45.965Z,54.53
2022-10-18T11:31:22.896Z,54.57
2022-10-18T11:34:12.519Z,54.62
2022-10-18T11:37:09.654Z,55.46
2022-10-18T11:39:58.016Z,56.40
2022-10-18T11:42:40.006Z,56.52
2022-10-18T11:45:27.866Z,56.68
2022-10-18T11:48:12.309Z,56.81
2022-10-18T11:50:50.996Z,56.91
2022-10-18T11:53:33.042Z,57.46
2022-10-18T11:56:10.826Z,57.47
2022-10-18T11:58:56.512Z,58.15
2022-10-18T12:01:38.586Z,57.41
2022-10-18T12:04:13.627Z,57.37
2022-10-18T12:06:44.200Z,57.54
2022-10-18T12:09:24.088Z,58.05
2022-10-18T12:11:58.364Z,57.93
2022-10-18T12:14:35.293Z,57.94
2022-10-18T12:17:40.807Z,58.08
2022-10-18T12:20:16.921Z,58.78
2022-10-18T12:22:54.379Z,58.69
2022-10-18T12:25:28.935Z,58.38
2022-10-18T12:28:07.873Z,58.47
2022-10-18T12:30:45.744Z,58.47
2022-10-18T12:33:28.238Z,58.26
2022-10-18T12:36:06.535Z,59.74
2022-10-18T12:38:37.856Z,59.20
2022-10-18T12:41:07.785Z,59.16
2022-10-18T12:43:45.449Z,59.29
2022-10-18T12:46:14.112Z,59.32
2022-10-18T12:48:45.106Z,59.99
2022-10-18T12:51:18.669Z,59.75
2022-10-18T12:53:52.141Z,60.13
2022-10-18T12:56:41.914Z,60.28
2022-10-18T12:59:44.110Z,60.22
2022-10-18T13:02:31.502Z,60.22
2022-10-18T13:05:33.770Z,60.98
2022-10-18T13:08:40.256Z,61.68
2022-10-18T13:11:32.953Z,61.88
2022-10-18T13:14:30.485Z,62.31
2022-10-18T13:17:07.183Z,63.13
2022-10-18T13:19:58.057Z,62.49
2022-10-18T13:22:53.807Z,62.71
2022-10-18T13:25:28.434Z,62.89
2022-10-18T13:28:05.435Z,63.32
2022-10-18T13:30:54.648Z,62.79
2022-10-18T13:33:35.156Z,63.46
2022-10-18T13:36:22.929Z,64.21
2022-10-18T13:39:06.436Z,64.11
2022-10-18T13:42:13.167Z,64.04
2022-10-18T13:44:45.852Z,63.94
2022-10-18T13:47:31.997Z,64.98
2022-10-18T13:53:21.611Z,64.64
2022-10-18T13:56:08.148Z,64.97
2022-10-18T13:59:05.799Z,64.23
2022-10-18T14:01:54.235Z,64.73
2022-10-18T14:04:47.473Z,64.83
2022-10-18T14:07:19.110Z,64.98
2022-10-18T14:09:54.998Z,65.14
2022-10-18T14:12:28.968Z,65.41
2022-10-18T14:15:05.822Z,66.00
2022-10-18T14:17:41.808Z,65.77
2022-10-18T14:20:28.711Z,66.51
2022-10-18T14:23:06.694Z,66.95
2022-10-18T14:25:39.847Z,66.90
2022-10-18T14:28:14.223Z,67.04
2022-10-18T14:30:54.776Z,67.63
2022-10-18T14:33:30.031Z,67.87
2022-10-18T14:36:28.555Z,67.75
2022-10-18T14:39:01.695Z,68.03
2022-10-18T14:41:34.937Z,68.20
2022-10-18T14:44:19.158Z,68.23
2022-10-18T14:46:50.029Z,68.65
2022-10-18T14:49:20.510Z,68.84
2022-10-18T14:51:52.992Z,68.91
2022-10-18T14:54:27.538Z,68.78
2022-10-18T14:57:03.420Z,69.60
2022-10-18T14:59:38.044Z,69.77
2022-10-18T15:02:14.602Z,70.22
2022-10-18T15:04:46.574Z,70.00
2022-10-18T15:07:17.568Z,70.99
2022-10-18T15:09:47.093Z,71.09
2022-10-18T15:12:17.626Z,71.83
2022-10-18T15:14:47.915Z,71.63
2022-10-18T15:17:21.239Z,72.27
2022-10-18T15:20:00.460Z,72.22
2022-10-18T15:22:35.423Z,73.05
2022-10-18T15:25:20.078Z,72.65
2022-10-18T15:27:51.382Z,73.82
2022-10-18T15:30:25.086Z,73.97
2022-10-18T15:32:55.166Z,74.35
2022-10-18T15:35:27.546Z,74.17
2022-10-18T15:37:57.397Z,74.73
2022-10-18T15:40:38.458Z,75.24
2022-10-18T15:43:36.449Z,76.19
2022-10-18T15:46:07.394Z,76.05
2022-10-18T15:48:39.609Z,76.29
2022-10-18T15:51:19.240Z,76.93
2022-10-18T15:53:53.309Z,77.38
2022-10-18T15:56:33.617Z,77.86
2022-10-18T15:59:04.284Z,79.38
2022-10-18T16:01:42.384Z,79.37
2022-10-18T16:04:19.745Z,80.50
2022-10-18T16:06:48.511Z,80.63
2022-10-18T16:09:19.614Z,81.67
2022-10-18T16:11:55.622Z,82.28
2022-10-18T16:14:26.820Z,82.20
2022-10-18T16:17:01.845Z,82.83
2022-10-18T16:19:31.730Z,83.34
2022-10-18T16:22:06.336Z,83.47
2022-10-18T16:24:35.815Z,83.31
2022-10-18T16:27:04.678Z,83.36
2022-10-18T16:29:33.459Z,83.58
2022-10-18T16:32:06.037Z,84.41
2022-10-18T16:34:35.662Z,84.34
2022-10-18T16:37:04.287Z,84.73
2022-10-18T16:39:35.210Z,84.53
2022-10-18T16:42:04.374Z,84.56
2022-10-18T16:44:32.898Z,85.05
2022-10-18T16:47:03.232Z,85.63
2022-10-18T16:49:31.957Z,84.75
2022-10-18T16:52:08.140Z,84.91
2022-10-18T16:54:38.654Z,85.17
2022-10-18T16:57:07.340Z,86.02
2022-10-18T16:59:35.926Z,86.11
2022-10-18T17:02:08.475Z,85.39
2022-10-18T17:04:36.975Z,85.69
2022-10-18T17:07:05.460Z,86.37
2022-10-18T17:09:34.439Z,86.77
2022-10-18T17:12:03.170Z,86.74
2022-10-18T17:14:34.244Z,87.04
2022-10-18T17:17:02.935Z,85.96
2022-10-18T17:19:32.076Z,87.35
2022-10-18T17:22:02.851Z,87.19
2022-10-18T17:24:31.671Z,86.99
2022-10-18T17:27:01.196Z,86.77
2022-10-18T17:29:29.643Z,86.87
2022-10-18T17:31:58.115Z,86.51
2022-10-18T17:34:26.744Z,87.21
2022-10-18T17:36:55.435Z,86.64
2022-10-18T17:39:24.096Z,87.18
2022-10-18T17:41:52.527Z,86.46
2022-10-18T17:44:21.647Z,86.78
2022-10-18T17:46:50.560Z,86.59
2022-10-18T17:49:19.261Z,86.63
2022-10-18T17:51:47.779Z,86.94
2022-10-18T17:54:16.606Z,87.26
2022-10-18T17:56:45.606Z,86.60
2022-10-18T17:59:14.126Z,86.62
2022-10-18T18:01:42.759Z,86.80
2022-10-18T18:07:50.392Z,87.31
2022-10-18T18:10:21.388Z,86.97
2022-10-18T18:12:49.893Z,87.06
2022-10-18T18:15:22.242Z,86.89
2022-10-18T18:17:58.517Z,87.37
2022-10-18T18:20:29.634Z,87.62
2022-10-18T18:22:58.403Z,87.85
2022-10-18T18:25:27.024Z,88.13
2022-10-18T18:27:56.143Z,88.29
2022-10-18T18:30:26.334Z,88.09
2022-10-18T18:32:54.893Z,88.34
2022-10-18T18:35:26.822Z,88.83
2022-10-18T18:37:55.448Z,89.15
2022-10-18T18:40:24.125Z,89.25
2022-10-18T18:43:07.260Z,89.20
2022-10-18T18:45:50.446Z,89.24
2022-10-18T18:48:22.615Z,89.39
2022-10-18T18:50:54.375Z,89.20
2022-10-18T18:53:28.634Z,89.17
2022-10-18T18:56:14.375Z,89.44
2022-10-18T18:58:43.809Z,89.37
2022-10-18T19:01:21.509Z,89.28
2022-10-18T19:03:55.310Z,89.28
2022-10-18T19:06:30.655Z,88.92
2022-10-18T19:09:02.275Z,89.45
2022-10-18T19:11:34.055Z,89.50
2022-10-18T19:14:04.276Z,89.31
2022-10-18T19:16:42.621Z,89.28
2022-10-18T19:19:13.884Z,89.35
2022-10-18T19:21:44.513Z,89.69
2022-10-18T19:24:15.303Z,89.83
2022-10-18T19:26:50.486Z,90.04
2022-10-18T19:29:25.339Z,89.82
2022-10-18T19:31:56.057Z,90.00
2022-10-18T19:34:26.553Z,90.00
2022-10-18T19:36:55.408Z,90.14
2022-10-18T19:39:27.380Z,90.12
2022-10-18T19:41:58.542Z,90.14
2022-10-18T19:44:30.774Z,90.38
2022-10-18T19:46:59.731Z,90.57
2022-10-18T19:49:28.471Z,90.72
2022-10-18T19:51:57.979Z,91.18
2022-10-18T19:54:27.466Z,91.15
2022-10-18T19:56:56.119Z,91.13
2022-10-18T19:59:24.898Z,90.89
2022-10-18T20:01:53.956Z,90.96
2022-10-18T20:04:22.765Z,90.69
2022-10-18T20:06:52.857Z,91.00
2022-10-18T20:09:22.872Z,90.49
2022-10-18T20:11:59.755Z,90.34
2022-10-18T20:14:28.575Z,90.75
2022-10-18T20:16:57.230Z,90.70
2022-10-18T20:19:25.976Z,91.11
2022-10-18T20:21:57.766Z,91.06
2022-10-18T20:24:26.910Z,91.02
2022-10-18T20:26:55.440Z,91.00
2022-10-18T20:29:26.237Z,90.95
2022-10-18T20:31:55.654Z,91.25
2022-10-18T20:34:27.870Z,91.21
2022-10-18T20:36:56.576Z,91.38
2022-10-18T20:39:26.919Z,91.44
2022-10-18T20:41:55.666Z,91.39
2022-10-18T20:44:30.338Z,91.23
2022-10-18T20:46:59.068Z,91.46
2022-10-18T20:49:28.215Z,91.76
2022-10-18T20:51:59.319Z,91.98
2022-10-18T20:54:28.317Z,91.53
2022-10-18T20:56:59.586Z,92.18
2022-10-18T20:59:28.456Z,92.33
2022-10-18T21:01:57.286Z,92.03
2022-10-18T21:04:25.948Z,92.34
2022-10-18T21:06:56.076Z,92.18
2022-10-18T21:09:24.872Z,92.05
2022-10-18T21:11:54.068Z,92.47
2022-10-18T21:14:24.116Z,92.24
2022-10-18T21:16:53.130Z,92.21
2022-10-18T21:19:23.914Z,92.25
2022-10-18T21:21:55.090Z,92.39
2022-10-18T21:24:26.094Z,92.46
2022-10-18T21:26:54.731Z,92.04
2022-10-18T21:29:24.437Z,92.30
2022-10-18T21:31:57.655Z,92.53
2022-10-18T21:34:26.329Z,92.01
2022-10-18T21:36:55.186Z,92.27
2022-10-18T21:41:58.010Z,92.21
2022-10-18T21:44:26.852Z,92.34
2022-10-18T21:46:56.458Z,92.38
2022-10-18T21:49:27.578Z,92.21
2022-10-18T21:51:56.218Z,92.36
2022-10-18T21:54:25.292Z,92.66
2022-10-18T21:56:53.816Z,92.46
2022-10-18T21:59:22.638Z,92.04
2022-10-18T22:01:52.830Z,92.26
2022-10-18T22:04:24.407Z,92.50
2022-10-18T22:06:53.464Z,92.19
2022-10-18T22:09:22.451Z,92.16
2022-10-18T22:11:53.649Z,91.77
2022-10-18T22:14:23.921Z,91.27
2022-10-18T22:16:52.680Z,91.86
2022-10-18T22:19:21.444Z,91.21
2022-10-18T22:21:51.146Z,91.39
2022-10-18T22:24:22.469Z,91.42
2022-10-18T22:26:51.915Z,91.47
2022-10-18T22:29:21.931Z,91.35
2022-10-18T22:31:53.992Z,91.26
2022-10-18T22:34:27.005Z,91.27
2022-10-18T22:36:56.105Z,91.54
2022-10-18T22:39:25.417Z,91.48
2022-10-18T22:41:56.060Z,91.90
2022-10-18T22:44:24.767Z,92.07
2022-10-18T22:46:53.616Z,91.62
2022-10-18T22:49:22.748Z,91.70
2022-10-18T22:51:51.582Z,91.13
2022-10-18T22:54:20.740Z,90.97
2022-10-18T22:56:49.662Z,91.28
2022-10-18T22:59:19.905Z,91.30
2022-10-18T23:01:48.473Z,90.93
2022-10-18T23:04:16.992Z,90.89
2022-10-18T23:06:46.752Z,91.26
2022-10-18T23:09:15.207Z,91.05
2022-10-18T23:11:47.569Z,90.53
2022-10-18T23:14:16.698Z,90.67
2022-10-18T23:16:45.399Z,90.82
2022-10-18T23:19:16.445Z,91.05
2022-10-18T23:21:45.043Z,91.07
2022-10-18T23:24:13.602Z,91.12
2022-10-18T23:26:42.210Z,91.03
2022-10-18T23:29:10.779Z,91.20
2022-10-18T23:31:39.472Z,91.27
2022-10-18T23:34:07.942Z,91.81
2022-10-18T23:36:37.104Z,91.59
2022-10-18T23:39:06.065Z,91.53
2022-10-18T23:41:35.285Z,91.33
2022-10-18T23:44:04.810Z,91.33
2022-10-18T23:46:33.259Z,91.36
2022-10-18T23:49:01.830Z,91.22
2022-10-18T23:51:30.336Z,91.16
2022-10-18T23:53:58.792Z,91.30
2022-10-18T23:56:27.389Z,91.48
2022-10-18T23:58:56.849Z,91.65
